Time;durP1;ratioP1;P1;durP2;ratioP2;P2;SDS_P1;SDS_P2;PMS_P1;PMS_P2;Temp;Humidity;BMP_temperature;BMP_pressure;BME280_temperature;BME280_humidity;BME280_pressure;Samples;Min_cycle;Max_cycle;Signal;HPM_P1;HPM_P2
2021/08/23 00:00:21;;;;;;;29.83;23.83;;;;;;;17.58;100.00;101735.63;10456522;28;20044;-69
2021/08/23 00:05:23;;;;;;;23.83;21.38;;;;;;;17.60;100.00;101747.81;10457467;28;20056;-70
2021/08/23 00:10:26;;;;;;;37.67;27.63;;;;;;;17.55;100.00;101757.03;10456901;28;20056;-69
2021/08/23 00:15:29;;;;;;;44.05;31.05;;;;;;;17.40;100.00;101762.50;10456795;28;20060;-69
2021/08/23 00:20:43;;;;;;;56.90;30.83;;;;;;;17.48;100.00;101766.38;10456981;28;20064;-68
2021/08/23 00:25:46;;;;;;;40.30;30.83;;;;;;;17.37;100.00;101769.81;10456803;28;20056;-69
2021/08/23 00:30:48;;;;;;;30.55;25.50;;;;;;;17.67;100.00;101765.91;10456892;28;20075;-71
2021/08/23 00:35:51;;;;;;;36.65;26.95;;;;;;;17.52;100.00;101779.28;10455135;28;20060;-69
2021/08/23 00:40:53;;;;;;;37.42;28.83;;;;;;;17.52;100.00;101781.94;10456506;28;20045;-67
2021/08/23 00:45:55;;;;;;;57.47;37.00;;;;;;;17.47;100.00;101781.44;10456170;28;20060;-68
2021/08/23 00:50:58;;;;;;;50.28;35.85;;;;;;;17.54;100.00;101789.78;10455903;28;20128;-69
2021/08/23 00:56:00;;;;;;;43.63;32.03;;;;;;;17.56;100.00;101801.94;10454967;28;20049;-67
2021/08/23 01:01:10;;;;;;;40.83;30.25;;;;;;;17.67;100.00;101811.78;10454498;28;20053;-70
2021/08/23 01:06:12;;;;;;;81.60;40.65;;;;;;;17.62;100.00;101812.09;10455130;28;20045;-73
2021/08/23 01:11:16;;;;;;;58.63;38.58;;;;;;;17.38;100.00;101832.34;10454534;28;20053;-70
2021/08/23 01:16:19;;;;;;;36.90;27.08;;;;;;;17.57;100.00;101830.13;10462150;28;20053;-70
2021/08/23 01:21:25;;;;;;;36.10;29.02;;;;;;;17.55;100.00;101845.28;10462941;28;20049;-70
2021/08/23 01:26:31;;;;;;;67.53;42.28;;;;;;;17.50;100.00;101842.09;10461789;28;20489;-71
2021/08/23 01:32:02;;;;;;;58.42;40.15;;;;;;;17.44;100.00;101866.34;10462799;28;20041;-69
2021/08/23 01:37:05;;;;;;;41.45;31.42;;;;;;;17.78;100.00;101859.50;10461632;28;20049;-70
2021/08/23 01:42:07;;;;;;;44.08;32.67;;;;;;;17.62;100.00;101867.72;10462910;28;20045;-70
2021/08/23 01:47:10;;;;;;;50.28;36.00;;;;;;;17.34;100.00;101871.44;10462862;28;20045;-69
2021/08/23 01:52:12;;;;;;;57.30;33.78;;;;;;;17.48;100.00;101881.06;10462372;28;20045;-69
2021/08/23 01:57:16;;;;;;;44.80;32.80;;;;;;;17.27;100.00;101897.47;10461826;28;20049;-69
2021/08/23 02:02:18;;;;;;;46.97;32.90;;;;;;;17.13;100.00;101892.28;10461982;28;20048;-69
2021/08/23 02:07:20;;;;;;;58.65;35.05;;;;;;;16.82;100.00;101901.41;10461412;28;20504;-70
2021/08/23 02:12:23;;;;;;;33.63;25.63;;;;;;;17.18;100.00;101914.00;10461266;28;20512;-72
2021/08/23 02:17:25;;;;;;;58.15;35.50;;;;;;;16.63;100.00;101909.69;10460784;28;20408;-70
2021/08/23 02:22:28;;;;;;;44.75;32.65;;;;;;;16.92;100.00;101913.09;10460896;28;20060;-70
2021/08/23 02:27:32;;;;;;;49.60;32.58;;;;;;;16.93;100.00;101906.84;10460172;28;20059;-71
2021/08/23 02:32:36;;;;;;;49.67;33.78;;;;;;;16.95;100.00;101926.13;10460643;28;20045;-69
2021/08/23 02:37:38;;;;;;;40.63;26.90;;;;;;;17.12;100.00;101932.09;10460182;28;20082;-71
2021/08/23 02:42:41;;;;;;;38.88;26.50;;;;;;;17.05;100.00;101940.41;10460247;28;20048;-69
2021/08/23 02:47:43;;;;;;;32.65;25.85;;;;;;;16.91;100.00;101945.75;10460200;28;20053;-70
2021/08/23 02:52:45;;;;;;;53.15;34.92;;;;;;;16.69;100.00;101943.66;10459977;28;20075;-70
2021/08/23 02:57:48;;;;;;;46.45;27.33;;;;;;;17.03;100.00;101950.25;10459195;28;20397;-70
2021/08/23 03:02:51;;;;;;;71.63;36.60;;;;;;;16.61;100.00;101949.47;10459410;28;20075;-70
2021/08/23 03:07:53;;;;;;;63.50;35.55;;;;;;;16.62;100.00;101953.78;10459053;28;20056;-70
2021/08/23 03:12:56;;;;;;;62.47;37.22;;;;;;;16.71;100.00;101953.19;10459353;28;20045;-71
2021/08/23 03:17:58;;;;;;;62.75;35.08;;;;;;;17.16;100.00;101958.22;10458660;28;20052;-70
2021/08/23 03:23:01;;;;;;;83.35;44.58;;;;;;;17.09;100.00;101956.94;10459645;28;20064;-72
2021/08/23 03:28:03;;;;;;;85.85;42.15;;;;;;;17.06;100.00;101960.66;10458045;28;20493;-70
2021/08/23 03:33:06;;;;;;;104.95;49.55;;;;;;;16.74;100.00;101964.50;10457992;28;20053;-70
2021/08/23 03:38:08;;;;;;;48.35;29.35;;;;;;;16.89;100.00;101966.19;10457441;28;20507;-69
2021/08/23 03:43:11;;;;;;;61.75;38.45;;;;;;;17.03;100.00;101970.56;10457859;28;20045;-69
2021/08/23 03:48:13;;;;;;;47.83;29.00;;;;;;;16.95;100.00;101981.66;10456235;28;20048;-71
2021/08/23 03:53:16;;;;;;;49.78;28.75;;;;;;;16.64;100.00;101982.75;10457871;28;20488;-69
2021/08/23 03:58:18;;;;;;;26.05;19.73;;;;;;;16.92;100.00;101992.44;10457462;28;20052;-71
2021/08/23 04:03:20;;;;;;;56.53;33.20;;;;;;;16.60;100.00;101987.41;10457791;28;20047;-71
2021/08/23 04:08:22;;;;;;;44.00;29.15;;;;;;;16.76;100.00;102003.16;10456792;28;20489;-72
2021/08/23 04:13:25;;;;;;;73.13;35.20;;;;;;;16.85;100.00;102005.22;10457122;28;20390;-70
2021/08/23 04:18:28;;;;;;;79.50;35.72;;;;;;;16.68;100.00;102013.38;10456204;28;20044;-70
2021/08/23 04:23:30;;;;;;;59.45;35.20;;;;;;;16.46;100.00;102021.81;10456522;28;20048;-68
2021/08/23 04:28:32;;;;;;;70.15;36.10;;;;;;;16.58;100.00;102033.41;10456386;28;20484;-68
2021/08/23 04:33:35;;;;;;;58.20;32.67;;;;;;;16.42;100.00;102029.06;10457043;28;20057;-71
2021/08/23 04:38:37;;;;;;;62.25;34.55;;;;;;;16.39;100.00;102031.91;10456372;28;20045;-70
2021/08/23 04:43:39;;;;;;;72.78;34.78;;;;;;;16.59;100.00;102048.31;10456307;28;20041;-71
2021/08/23 04:48:42;;;;;;;100.15;42.33;;;;;;;16.50;100.00;102049.75;10460010;28;20053;-69
2021/08/23 04:53:44;;;;;;;60.35;34.42;;;;;;;16.28;100.00;102060.81;10464320;28;20049;-70
2021/08/23 04:58:47;;;;;;;63.22;35.63;;;;;;;16.39;100.00;102074.22;10464452;28;20049;-71
2021/08/23 05:03:49;;;;;;;55.85;30.35;;;;;;;16.38;100.00;102075.16;10464264;28;20045;-69
2021/08/23 05:08:51;;;;;;;50.13;29.58;;;;;;;16.50;100.00;102086.75;10463729;28;20063;-70
2021/08/23 05:13:54;;;;;;;48.70;26.42;;;;;;;16.68;100.00;102087.41;10463875;28;20049;-69
2021/08/23 05:18:56;;;;;;;44.72;26.50;;;;;;;16.56;100.00;102088.16;10463354;28;20060;-69
2021/08/23 05:23:58;;;;;;;43.38;26.55;;;;;;;16.46;100.00;102094.03;10463520;28;20045;-70
2021/08/23 05:29:01;;;;;;;51.92;29.30;;;;;;;16.56;100.00;102104.88;10463129;28;20060;-71
2021/08/23 05:34:03;;;;;;;56.22;31.80;;;;;;;16.47;100.00;102114.22;10462934;28;20056;-70
2021/08/23 05:39:06;;;;;;;62.60;34.63;;;;;;;16.12;100.00;102114.59;10462749;28;20053;-70
2021/08/23 05:44:08;;;;;;;60.58;29.58;;;;;;;16.28;100.00;102122.41;10462488;28;20048;-68
2021/08/23 05:49:11;;;;;;;53.35;27.88;;;;;;;16.00;100.00;102127.66;10462408;28;20063;-70
2021/08/23 05:54:13;;;;;;;59.90;30.75;;;;;;;15.74;100.00;102133.50;10462209;28;20053;-70
2021/08/23 05:59:15;;;;;;;40.67;23.45;;;;;;;15.93;100.00;102138.56;10461030;28;20156;-70
2021/08/23 06:04:19;;;;;;;49.75;28.67;;;;;;;16.15;100.00;102138.19;10461865;28;20045;-70
2021/08/23 06:09:22;;;;;;;52.38;30.13;;;;;;;16.32;100.00;102150.38;10461536;28;20049;-69
2021/08/23 06:14:25;;;;;;;45.90;26.73;;;;;;;16.12;100.00;102156.84;10461627;28;20073;-69
2021/08/23 06:19:27;;;;;;;47.72;28.17;;;;;;;16.07;100.00;102158.03;10461057;28;20401;-71
2021/08/23 06:24:30;;;;;;;47.00;26.33;;;;;;;16.27;100.00;102163.03;10460984;28;20048;-70
2021/08/23 06:29:32;;;;;;;48.80;27.80;;;;;;;16.36;100.00;102172.19;10460623;28;20485;-71
2021/08/23 06:34:34;;;;;;;48.38;29.25;;;;;;;16.47;100.00;102166.25;10460380;28;20444;-70
2021/08/23 06:39:37;;;;;;;32.63;23.10;;;;;;;16.23;100.00;102169.41;10459867;28;20408;-70
2021/08/23 06:44:40;;;;;;;32.90;23.30;;;;;;;16.85;100.00;102176.31;10460152;28;20068;-71
2021/08/23 06:49:42;;;;;;;39.83;27.02;;;;;;;16.87;100.00;102180.53;10460221;28;20061;-71
2021/08/23 06:54:45;;;;;;;33.88;22.38;;;;;;;16.68;100.00;102179.97;10459839;28;20436;-69
2021/08/23 06:59:47;;;;;;;38.53;24.60;;;;;;;16.63;100.00;102182.88;10459749;28;20045;-69
2021/08/23 07:04:50;;;;;;;30.65;21.20;;;;;;;16.51;100.00;102189.75;10459496;28;20057;-70
2021/08/23 07:09:52;;;;;;;29.50;22.13;;;;;;;16.72;100.00;102194.69;10459104;28;20055;-69
2021/08/23 07:14:54;;;;;;;23.83;19.33;;;;;;;17.39;100.00;102188.78;10459196;28;20041;-69
2021/08/23 07:19:57;;;;;;;22.50;18.58;;;;;;;16.80;100.00;102197.69;10458891;28;20084;-70
2021/08/23 07:24:59;;;;;;;25.13;18.38;;;;;;;17.48;100.00;102190.81;10458948;28;20052;-69
2021/08/23 07:30:02;;;;;;;21.80;17.13;;;;;;;17.56;100.00;102196.47;10457992;28;20060;-69
2021/08/23 07:35:05;;;;;;;21.58;14.35;;;;;;;17.52;100.00;102204.75;10458006;28;20402;-71
2021/08/23 07:40:08;;;;;;;18.08;13.57;;;;;;;17.89;100.00;102205.84;10457858;28;20500;-70
2021/08/23 07:45:13;;;;;;;14.52;10.93;;;;;;;17.93;100.00;102204.69;10458360;28;20049;-69
2021/08/23 07:50:16;;;;;;;16.38;13.38;;;;;;;18.98;100.00;102220.59;10457874;28;20053;-69
2021/08/23 07:55:19;;;;;;;12.15;10.23;;;;;;;18.08;100.00;102216.06;10457632;28;20052;-69
2021/08/23 08:00:22;;;;;;;13.45;10.23;;;;;;;19.04;100.00;102222.81;10457592;28;20049;-69
2021/08/23 08:05:25;;;;;;;10.13;9.05;;;;;;;18.14;100.00;102228.94;10457366;28;20045;-69
2021/08/23 08:10:27;;;;;;;11.35;9.85;;;;;;;18.60;100.00;102232.06;10456798;28;20500;-69
2021/08/23 08:15:30;;;;;;;11.82;9.90;;;;;;;17.94;100.00;102238.19;10456781;28;20427;-71
2021/08/23 08:20:33;;;;;;;13.50;10.48;;;;;;;18.47;100.00;102240.84;10457063;28;20058;-69
2021/08/23 08:25:35;;;;;;;16.92;9.77;;;;;;;18.57;100.00;102256.97;10456214;28;20049;-70
2021/08/23 08:30:41;;;;;;;13.48;9.95;;;;;;;17.64;100.00;102243.66;10456654;28;20060;-68
2021/08/23 08:35:44;;;;;;;15.55;9.95;;;;;;;18.08;100.00;102241.75;10456242;28;20516;-69
2021/08/23 08:40:46;;;;;;;18.13;12.48;;;;;;;17.96;100.00;102256.66;10456509;28;20059;-71
2021/08/23 08:45:49;;;;;;;11.05;7.60;;;;;;;17.70;100.00;102256.53;10454931;28;20052;-68
2021/08/23 08:50:51;;;;;;;13.80;8.35;;;;;;;18.28;100.00;102270.41;10456062;28;20045;-68
2021/08/23 08:55:54;;;;;;;11.02;8.05;;;;;;;18.39;100.00;102267.03;10455958;28;20049;-69
2021/08/23 09:00:56;;;;;;;9.20;7.47;;;;;;;18.27;100.00;102267.84;10456924;28;20053;-68
2021/08/23 09:06:06;;;;;;;11.75;8.80;;;;;;;19.27;100.00;102282.25;10455787;28;20057;-68
2021/08/23 09:11:09;;;;;;;10.45;7.05;;;;;;;18.72;100.00;102277.16;10455801;28;20041;-67
2021/08/23 09:16:11;;;;;;;10.52;5.90;;;;;;;18.46;100.00;102286.03;10455402;28;20392;-68
2021/08/23 09:21:14;;;;;;;12.77;7.68;;;;;;;18.44;100.00;102286.16;10455924;28;20115;-67
2021/08/23 09:26:17;;;;;;;8.57;6.43;;;;;;;18.32;100.00;102298.41;10455346;28;20059;-69
2021/08/23 09:31:25;;;;;;;8.27;5.95;;;;;;;18.68;100.00;102288.94;10455196;28;20049;-67
2021/08/23 09:36:28;;;;;;;11.32;5.45;;;;;;;19.28;100.00;102292.78;10458670;28;20556;-67
2021/08/23 09:41:31;;;;;;;8.50;5.53;;;;;;;18.55;100.00;102296.03;10462403;28;20052;-69
2021/08/23 09:46:35;;;;;;;11.20;6.30;;;;;;;18.66;100.00;102295.28;10462428;28;20056;-67
2021/08/23 09:51:40;;;;;;;8.75;6.15;;;;;;;19.24;100.00;102298.41;10462060;28;20075;-67
2021/08/23 09:56:48;;;;;;;11.40;6.47;;;;;;;19.53;100.00;102308.75;10462289;28;20417;-67
2021/08/23 10:01:52;;;;;;;8.82;6.55;;;;;;;19.67;100.00;102308.63;10461900;28;20056;-67
2021/08/23 10:06:56;;;;;;;9.73;6.32;;;;;;;19.32;100.00;102304.03;10461648;28;20053;-68
2021/08/23 10:11:59;;;;;;;9.80;6.60;;;;;;;21.02;96.52;102296.84;10461838;28;20041;-68
2021/08/23 10:17:01;;;;;;;7.40;5.57;;;;;;;20.38;100.00;102306.94;10461055;28;20374;-67
2021/08/23 10:22:04;;;;;;;6.53;4.55;;;;;;;20.52;100.00;102311.22;10460909;28;20417;-68
2021/08/23 10:27:06;;;;;;;7.70;5.72;;;;;;;20.27;96.61;102314.03;10459531;28;20413;-67
2021/08/23 10:32:10;;;;;;;7.78;5.88;;;;;;;21.28;93.47;102305.44;10460769;28;20041;-68
2021/08/23 10:37:18;;;;;;;6.93;4.68;;;;;;;20.94;96.09;102313.41;10460878;28;20052;-68
2021/08/23 10:42:21;;;;;;;9.23;4.43;;;;;;;20.12;96.15;102324.00;10460076;28;20478;-67
2021/08/23 10:47:30;;;;;;;7.15;5.18;;;;;;;20.60;99.09;102319.47;10459764;28;20068;-67
2021/08/23 10:52:35;;;;;;;5.13;4.63;;;;;;;19.65;97.66;102330.00;10459745;28;20045;-67
2021/08/23 10:57:37;;;;;;;8.50;5.13;;;;;;;20.32;100.00;102320.69;10459503;28;20072;-68
2021/08/23 11:02:40;;;;;;;10.50;5.18;;;;;;;19.77;94.19;102324.75;10459332;28;20055;-67
2021/08/23 11:07:46;;;;;;;7.95;5.05;;;;;;;23.41;83.65;102306.44;10459141;28;20060;-67
2021/08/23 11:12:57;;;;;;;3.83;3.22;;;;;;;23.18;84.67;102310.19;10459284;28;20045;-68
2021/08/23 11:18:04;;;;;;;5.70;3.13;;;;;;;23.20;83.94;102307.38;10458785;28;20076;-67
2021/08/23 11:23:13;;;;;;;8.35;3.97;;;;;;;22.75;84.88;102315.69;10457947;28;20060;-68
2021/08/23 11:28:17;;;;;;;6.10;3.53;;;;;;;22.24;88.28;102312.75;10458203;28;20064;-68
2021/08/23 11:33:28;;;;;;;4.50;2.83;;;;;;;22.08;86.64;102307.84;10458735;28;20060;-67
2021/08/23 11:38:37;;;;;;;7.97;3.10;;;;;;;23.56;82.33;102307.75;10457761;28;20477;-68
2021/08/23 11:43:41;;;;;;;6.50;2.78;;;;;;;25.25;77.02;102301.16;10458411;28;20041;-67
2021/08/23 11:48:44;;;;;;;3.10;2.28;;;;;;;24.00;75.65;102299.41;10457525;28;20056;-66
2021/08/23 11:54:05;;;;;;;4.45;2.10;;;;;;;25.28;67.11;102292.84;10456904;28;20119;-67
2021/08/23 11:59:12;;;;;;;2.92;2.03;;;;;;;25.29;67.51;102295.38;10455374;28;20049;-67
2021/08/23 12:04:21;;;;;;;4.68;2.13;;;;;;;25.50;68.61;102295.13;10457507;28;20045;-67
2021/08/23 12:09:23;;;;;;;3.83;2.20;;;;;;;22.63;73.74;102293.56;10457088;28;20049;-68
2021/08/23 12:14:28;;;;;;;5.90;2.05;;;;;;;24.81;73.21;102291.03;10457141;28;20049;-67
2021/08/23 12:19:31;;;;;;;6.97;2.15;;;;;;;26.22;70.90;102292.47;10456325;28;20409;-68
2021/08/23 12:24:34;;;;;;;3.83;2.10;;;;;;;24.96;71.31;102299.44;10456471;28;20045;-67
2021/08/23 12:29:37;;;;;;;3.15;1.85;;;;;;;25.84;64.16;102288.25;10456242;28;20501;-67
2021/08/23 12:34:51;;;;;;;4.53;2.08;;;;;;;26.14;63.14;102287.03;10456419;28;20053;-67
2021/08/23 12:39:53;;;;;;;6.18;1.83;;;;;;;24.54;67.17;102297.13;10456453;28;20041;-67
2021/08/23 12:44:56;;;;;;;6.28;1.90;;;;;;;23.89;77.14;102308.44;10456189;28;20389;-67
2021/08/23 12:49:58;;;;;;;3.72;1.83;;;;;;;26.55;69.36;102295.44;10455999;28;20492;-67
2021/08/23 12:55:00;;;;;;;4.68;1.63;;;;;;;26.46;64.99;102293.66;10456213;28;20048;-67
2021/08/23 13:00:07;;;;;;;5.20;1.75;;;;;;;24.47;68.85;102296.84;10456440;28;20067;-67
2021/08/23 13:05:10;;;;;;;6.57;2.22;;;;;;;24.75;68.41;102295.13;10456547;28;20049;-67
2021/08/23 13:10:12;;;;;;;3.00;1.83;;;;;;;27.15;62.83;102299.13;10460340;28;20049;-67
2021/08/23 13:15:15;;;;;;;2.50;1.77;;;;;;;25.75;63.20;102303.41;10463975;28;20048;-67
2021/08/23 13:20:17;;;;;;;4.15;1.73;;;;;;;23.74;71.14;102308.78;10463887;28;20064;-66
2021/08/23 13:25:19;;;;;;;4.90;1.88;;;;;;;23.39;77.32;102316.44;10463362;28;20049;-67
2021/08/23 13:30:22;;;;;;;4.10;2.20;;;;;;;24.32;73.97;102308.97;10463316;28;20049;-67
2021/08/23 13:35:24;;;;;;;4.60;1.75;;;;;;;25.21;59.79;102292.56;10463426;28;20060;-67
2021/08/23 13:40:26;;;;;;;3.65;1.92;;;;;;;25.59;60.71;102302.25;10463070;28;20064;-67
2021/08/23 13:45:29;;;;;;;2.67;1.48;;;;;;;24.34;64.69;102301.66;10462518;28;20049;-67
2021/08/23 13:50:31;;;;;;;2.00;1.58;;;;;;;23.66;71.98;102313.13;10461973;28;20409;-67
2021/08/23 13:55:34;;;;;;;3.92;1.60;;;;;;;23.62;74.72;102307.22;10462082;28;20048;-67
2021/08/23 14:00:37;;;;;;;2.97;1.73;;;;;;;22.73;71.65;102310.47;10461906;28;20045;-67
2021/08/23 14:05:40;;;;;;;2.70;2.03;;;;;;;23.31;70.24;102312.59;10461794;28;20106;-66
2021/08/23 14:10:42;;;;;;;1.98;1.60;;;;;;;24.97;62.66;102304.66;10461452;28;20053;-67
2021/08/23 14:15:45;;;;;;;10.52;1.63;;;;;;;25.16;61.57;102308.25;10461536;28;20049;-67
2021/08/23 14:20:47;;;;;;;2.42;1.80;;;;;;;23.69;73.48;102323.56;10460615;28;20053;-66
2021/08/23 14:25:50;;;;;;;3.88;1.83;;;;;;;23.60;73.95;102316.34;10460756;28;20405;-67
2021/08/23 14:30:52;;;;;;;1.67;1.40;;;;;;;22.95;73.88;102312.13;10461188;28;20056;-67
2021/08/23 14:35:54;;;;;;;1.73;1.30;;;;;;;24.97;63.65;102312.69;10460669;28;20120;-66
2021/08/23 14:40:57;;;;;;;3.53;1.30;;;;;;;26.94;58.04;102308.44;10460173;28;20135;-67
2021/08/23 14:45:59;;;;;;;2.00;1.33;;;;;;;24.78;60.24;102310.06;10460115;28;20057;-68
2021/08/23 14:51:01;;;;;;;3.25;1.02;;;;;;;26.49;58.64;102310.34;10459865;28;20052;-68
2021/08/23 14:56:04;;;;;;;4.03;1.45;;;;;;;25.21;61.82;102314.84;10459674;28;20048;-66
2021/08/23 15:01:10;;;;;;;3.20;1.13;;;;;;;25.28;62.41;102322.31;10459368;28;20056;-67
2021/08/23 15:06:12;;;;;;;1.60;1.27;;;;;;;25.40;57.53;102322.00;10459524;28;20048;-66
2021/08/23 15:11:15;;;;;;;8.75;1.08;;;;;;;26.99;53.52;102319.56;10459534;28;20052;-67
2021/08/23 15:16:17;;;;;;;1.77;1.00;;;;;;;27.98;52.50;102323.47;10458856;28;20060;-66
2021/08/23 15:21:21;;;;;;;1.52;0.90;;;;;;;25.83;56.54;102310.72;10458616;28;20067;-67
2021/08/23 15:26:23;;;;;;;2.17;0.80;;;;;;;27.80;53.64;102318.19;10458340;28;20049;-67
2021/08/23 15:31:25;;;;;;;5.22;1.35;;;;;;;26.07;56.17;102323.56;10457394;28;20489;-66
2021/08/23 15:36:28;;;;;;;0.80;0.80;;;;;;;25.83;53.45;102324.13;10458060;28;20056;-67
2021/08/23 15:41:31;;;;;;;1.23;0.80;;;;;;;24.54;53.97;102326.56;10457937;28;20045;-67
2021/08/23 15:46:33;;;;;;;1.27;1.10;;;;;;;25.11;57.93;102331.97;10457856;28;20049;-66
2021/08/23 15:51:36;;;;;;;1.55;0.98;;;;;;;23.70;59.26;102328.78;10457910;28;20052;-66
2021/08/23 15:56:38;;;;;;;1.98;0.90;;;;;;;24.10;56.04;102341.22;10457199;28;20052;-66
2021/08/23 16:01:40;;;;;;;1.02;0.90;;;;;;;23.13;62.92;102338.25;10457202;28;20047;-66
2021/08/23 16:06:43;;;;;;;0.77;0.77;;;;;;;23.16;62.28;102335.31;10457361;28;20041;-67
2021/08/23 16:11:47;;;;;;;1.17;0.80;;;;;;;22.87;61.35;102343.16;10457201;28;20140;-68
2021/08/23 16:16:49;;;;;;;1.80;0.98;;;;;;;23.13;62.39;102344.47;10456830;28;20481;-66
2021/08/23 16:21:52;;;;;;;2.90;1.00;;;;;;;22.13;63.52;102342.13;10456730;28;20061;-65
2021/08/23 16:26:55;;;;;;;1.35;0.90;;;;;;;22.38;64.01;102342.81;10455695;28;20127;-66
2021/08/23 16:31:57;;;;;;;2.95;1.10;;;;;;;22.51;70.26;102347.94;10456584;28;20056;-66
2021/08/23 16:37:00;;;;;;;3.83;1.67;;;;;;;22.38;62.02;102357.00;10456329;28;20041;-67
2021/08/23 16:42:03;;;;;;;4.05;1.92;;;;;;;22.22;67.60;102352.03;10456598;28;20099;-67
2021/08/23 16:47:05;;;;;;;1.40;1.08;;;;;;;21.95;70.47;102357.81;10464055;28;20485;-66
2021/08/23 16:52:08;;;;;;;2.75;0.80;;;;;;;22.04;68.73;102353.56;10465023;28;20052;-66
2021/08/23 16:57:10;;;;;;;1.00;0.85;;;;;;;21.94;70.67;102361.47;10463225;28;20056;-66
2021/08/23 17:02:13;;;;;;;2.22;1.00;;;;;;;21.73;73.09;102356.06;10464434;28;20056;-67
2021/08/23 17:07:31;;;;;;;1.35;1.00;;;;;;;21.58;67.63;102355.44;10463980;28;20045;-67
2021/08/23 17:12:34;;;;;;;1.20;0.90;;;;;;;21.46;74.43;102359.91;10464024;28;20045;-68
2021/08/23 17:17:37;;;;;;;3.58;1.08;;;;;;;21.41;74.91;102362.09;10463530;28;20481;-68
2021/08/23 17:22:39;;;;;;;1.30;1.20;;;;;;;21.25;74.13;102362.47;10463673;28;20056;-68
2021/08/23 17:27:41;;;;;;;4.43;1.10;;;;;;;21.12;77.34;102359.91;10463219;28;20053;-69
2021/08/23 17:32:44;;;;;;;1.80;0.95;;;;;;;20.80;80.65;102357.06;10463175;28;20397;-66
2021/08/23 17:37:47;;;;;;;1.02;1.00;;;;;;;20.59;80.74;102363.03;10462940;28;20048;-68
2021/08/23 17:42:50;;;;;;;3.08;1.23;;;;;;;20.42;82.64;102364.28;10462668;28;20049;-67
2021/08/23 17:47:53;;;;;;;1.38;1.15;;;;;;;20.16;84.79;102374.19;10462314;28;20045;-67
2021/08/23 17:52:56;;;;;;;0.65;0.65;;;;;;;19.97;88.27;102381.78;10462649;28;20045;-68
2021/08/23 17:57:58;;;;;;;2.05;1.10;;;;;;;19.73;89.05;102385.22;10460870;28;20053;-68
2021/08/23 18:03:01;;;;;;;1.00;0.88;;;;;;;19.52;91.29;102384.97;10461955;28;20500;-65
2021/08/23 18:08:04;;;;;;;1.65;1.20;;;;;;;19.25;90.40;102395.69;10461634;28;20053;-67
2021/08/23 18:13:06;;;;;;;2.83;1.10;;;;;;;19.02;93.41;102400.75;10461843;28;20045;-65
2021/08/23 18:18:09;;;;;;;1.67;1.20;;;;;;;18.79;95.17;102396.13;10461782;28;20053;-66
2021/08/23 18:23:11;;;;;;;5.55;1.90;;;;;;;18.31;99.97;102417.84;10461589;28;20058;-65
2021/08/23 18:28:14;;;;;;;1.77;1.27;;;;;;;18.11;100.00;102414.66;10461293;28;20123;-65
2021/08/23 18:33:16;;;;;;;5.30;1.40;;;;;;;18.09;100.00;102415.69;10461342;28;20045;-66
2021/08/23 18:38:19;;;;;;;2.65;1.42;;;;;;;17.70;100.00;102419.88;10460605;28;20063;-66
2021/08/23 18:43:21;;;;;;;1.80;1.33;;;;;;;17.57;100.00;102433.03;10463295;28;20509;-65
2021/08/23 18:48:23;;;;;;;5.95;1.25;;;;;;;17.49;100.00;102437.94;10460798;28;20056;-66
2021/08/23 18:53:26;;;;;;;3.90;1.75;;;;;;;17.32;100.00;102439.81;10460070;28;20049;-67
2021/08/23 18:58:29;;;;;;;4.10;1.55;;;;;;;17.18;100.00;102451.22;10459789;28;20059;-65
2021/08/23 19:03:31;;;;;;;4.90;2.55;;;;;;;17.14;100.00;102457.63;10459922;28;20053;-66
2021/08/23 19:08:33;;;;;;;4.03;1.63;;;;;;;17.10;100.00;102461.41;10458866;28;20079;-65
2021/08/23 19:13:36;;;;;;;3.63;1.73;;;;;;;16.76;100.00;102475.69;10459165;28;20401;-67
2021/08/23 19:18:38;;;;;;;10.07;1.85;;;;;;;16.75;100.00;102476.63;10458668;28;20091;-66
2021/08/23 19:23:41;;;;;;;2.58;2.38;;;;;;;16.62;100.00;102472.03;10458766;28;20045;-65
2021/08/23 19:28:43;;;;;;;3.50;2.15;;;;;;;16.76;100.00;102478.31;10458443;28;20392;-67
2021/08/23 19:33:46;;;;;;;4.70;2.25;;;;;;;16.58;100.00;102494.31;10458738;28;20048;-66
2021/08/23 19:38:48;;;;;;;6.13;2.53;;;;;;;16.56;100.00;102504.13;10458216;28;20052;-67
2021/08/23 19:43:51;;;;;;;5.28;2.53;;;;;;;16.69;100.00;102502.50;10458103;28;20045;-65
2021/08/23 19:48:53;;;;;;;3.70;2.38;;;;;;;16.72;100.00;102507.59;10458151;28;20053;-65
2021/08/23 19:53:55;;;;;;;4.70;2.67;;;;;;;16.71;100.00;102523.56;10457736;28;20056;-66
2021/08/23 19:58:57;;;;;;;4.40;2.40;;;;;;;16.56;100.00;102519.09;10457936;28;20045;-66
2021/08/23 20:04:00;;;;;;;4.90;2.40;;;;;;;16.44;100.00;102523.28;10457266;28;20553;-66
2021/08/23 20:09:02;;;;;;;7.60;2.97;;;;;;;16.36;100.00;102526.38;10456773;28;20057;-65
2021/08/23 20:14:05;;;;;;;6.97;2.33;;;;;;;16.31;100.00;102526.59;10457276;28;20064;-65
2021/08/23 20:19:07;;;;;;;3.75;2.00;;;;;;;16.16;100.00;102538.00;10455807;28;20501;-67
2021/08/23 20:24:10;;;;;;;4.72;2.65;;;;;;;16.19;100.00;102540.50;10456796;28;20045;-66
2021/08/23 20:29:12;;;;;;;3.47;2.70;;;;;;;16.24;100.00;102538.44;10455155;28;20505;-67
2021/08/23 20:34:14;;;;;;;4.03;2.03;;;;;;;16.18;100.00;102533.50;10456716;28;20052;-65
2021/08/23 20:39:18;;;;;;;3.30;2.53;;;;;;;16.41;100.00;102536.66;10456259;28;20049;-66
2021/08/23 20:44:23;;;;;;;2.58;2.38;;;;;;;16.15;100.00;102536.28;10456729;28;20052;-66
2021/08/23 20:49:34;;;;;;;7.78;1.88;;;;;;;16.42;100.00;102546.31;10455355;28;20382;-66
2021/08/23 20:54:36;;;;;;;4.10;2.65;;;;;;;16.15;100.00;102557.44;10455219;28;20049;-66
2021/08/23 20:59:38;;;;;;;3.38;1.77;;;;;;;16.27;100.00;102559.44;10456068;28;20057;-65
2021/08/23 21:04:41;;;;;;;2.70;1.95;;;;;;;16.53;100.00;102563.28;10456087;28;20045;-66
2021/08/23 21:09:43;;;;;;;6.97;2.35;;;;;;;16.20;100.00;102573.03;10455751;28;20052;-66
2021/08/23 21:14:45;;;;;;;3.70;2.20;;;;;;;16.17;100.00;102574.03;10455900;28;20049;-66
2021/08/23 21:19:48;;;;;;;3.47;2.33;;;;;;;16.19;100.00;102574.84;10455477;28;20065;-66
2021/08/23 21:24:50;;;;;;;3.08;2.10;;;;;;;16.26;100.00;102573.56;10456046;28;20049;-65
2021/08/23 21:29:53;;;;;;;3.15;2.53;;;;;;;16.03;100.00;102574.78;10457794;28;20052;-65
2021/08/23 21:34:55;;;;;;;2.35;2.10;;;;;;;16.12;100.00;102570.78;10463396;28;20055;-65
2021/08/23 21:39:58;;;;;;;5.55;2.50;;;;;;;16.16;100.00;102577.66;10462733;28;20052;-65
2021/08/23 21:45:00;;;;;;;3.50;2.35;;;;;;;16.05;100.00;102577.34;10463523;28;20045;-65
2021/08/23 21:50:03;;;;;;;6.38;3.17;;;;;;;15.73;100.00;102588.59;10462269;28;20405;-66
2021/08/23 21:55:06;;;;;;;3.88;3.03;;;;;;;16.03;100.00;102590.63;10462668;28;20048;-66
2021/08/23 22:00:15;;;;;;;4.28;2.72;;;;;;;15.74;100.00;102592.94;10462086;28;20044;-65
2021/08/23 22:05:17;;;;;;;3.20;2.63;;;;;;;15.96;100.00;102600.66;10462544;28;20055;-65
2021/08/23 22:10:20;;;;;;;2.47;2.10;;;;;;;15.90;100.00;102598.34;10462273;28;20053;-66
2021/08/23 22:15:24;;;;;;;4.53;2.50;;;;;;;15.81;100.00;102596.16;10460940;28;20045;-65
2021/08/23 22:20:28;;;;;;;4.53;3.20;;;;;;;15.57;100.00;102603.53;10461328;28;20052;-66
2021/08/23 22:25:30;;;;;;;5.85;3.55;;;;;;;15.30;100.00;102598.66;10460401;28;20053;-66
2021/08/23 22:30:33;;;;;;;5.47;2.75;;;;;;;15.48;100.00;102606.59;10460791;28;20054;-65
2021/08/23 22:35:35;;;;;;;3.75;2.97;;;;;;;15.27;100.00;102611.16;10460752;28;20060;-65
2021/08/23 22:40:37;;;;;;;7.10;2.97;;;;;;;15.29;100.00;102618.06;10459680;28;20056;-66
2021/08/23 22:45:40;;;;;;;6.47;2.75;;;;;;;15.31;100.00;102620.63;10460451;28;20052;-67
2021/08/23 22:50:42;;;;;;;3.83;2.90;;;;;;;15.33;100.00;102619.63;10459996;28;20049;-66